EDL3 EDDM-EDDM

Flight info

Callsign EDL3
Flight time N/A
Altitude 3300
Route VFR
Aircraft EC45/?-VGD/A

Departure

Time 2026-05-04 18:25
Airport Munich Airport (EDDM)

Arrival

Time N/A
Airport Munich Airport (EDDM)
Time Latitude Longitude Altitude Speed Heading
2026-05-04 18:14 48.34539 11.74868 1483 ft 0 kts 258°
2026-05-04 18:25 48.34538 11.74868 1489 ft 1 kts 261°
2026-05-04 18:25 48.34586 11.74630 1636 ft 45 kts 264°
2026-05-04 18:25 48.34429 11.74173 2132 ft 52 kts 224°
2026-05-04 18:25 48.33958 11.73916 2416 ft 85 kts 185°
2026-05-04 18:26 48.33280 11.74018 2548 ft 111 kts 163°
2026-05-04 18:26 48.32535 11.74505 2627 ft 118 kts 146°
2026-05-04 18:26 48.31948 11.75381 2729 ft 130 kts 122°
2026-05-04 18:26 48.31540 11.76589 2883 ft 129 kts 116°
2026-05-04 18:27 48.31139 11.77804 2945 ft 129 kts 116°
2026-05-04 18:27 48.30740 11.78994 2969 ft 129 kts 117°
2026-05-04 18:27 48.30330 11.80195 2980 ft 129 kts 117°
2026-05-04 18:27 48.29913 11.81397 2985 ft 129 kts 118°
2026-05-04 18:28 48.29493 11.82592 2988 ft 129 kts 118°
2026-05-04 18:28 48.29072 11.83781 2989 ft 129 kts 118°
2026-05-04 18:28 48.28647 11.84972 2989 ft 129 kts 118°
2026-05-04 18:28 48.28220 11.86162 2990 ft 129 kts 118°
2026-05-04 18:29 48.27793 11.87348 2990 ft 129 kts 119°
2026-05-04 18:29 48.27370 11.88519 2990 ft 129 kts 119°
2026-05-04 18:29 48.26942 11.89702 2990 ft 129 kts 119°
2026-05-04 18:29 48.26510 11.90887 2990 ft 129 kts 119°
2026-05-04 18:30 48.25667 11.93344 3030 ft 131 kts 118°
2026-05-04 18:30 48.25268 11.94610 2978 ft 134 kts 121°
2026-05-04 18:30 48.24731 11.95639 3167 ft 126 kts 131°
2026-05-04 18:31 48.24134 11.96600 3258 ft 126 kts 135°
2026-05-04 18:31 48.23494 11.97518 3288 ft 131 kts 138°
2026-05-04 18:31 48.22793 11.98414 3278 ft 134 kts 141°
2026-05-04 18:31 48.22082 11.99372 3183 ft 141 kts 135°
2026-05-04 18:32 48.21404 12.00329 3149 ft 138 kts 135°
2026-05-04 18:32 48.20798 12.01316 3224 ft 128 kts 134°
2026-05-04 18:32 48.20136 12.02229 3211 ft 129 kts 140°
2026-05-04 18:32 48.19438 12.03140 3208 ft 129 kts 139°
2026-05-04 18:33 48.18767 12.04034 3205 ft 129 kts 139°
2026-05-04 18:33 48.18104 12.04941 3200 ft 129 kts 138°
2026-05-04 18:33 48.17443 12.05863 3203 ft 129 kts 137°
2026-05-04 18:33 48.16772 12.06805 3188 ft 137 kts 137°
2026-05-04 18:34 48.16072 12.07794 3201 ft 138 kts 137°
2026-05-04 18:34 48.15381 12.08785 3199 ft 138 kts 136°
2026-05-04 18:34 48.14691 12.09781 3200 ft 138 kts 136°
2026-05-04 18:34 48.14002 12.10778 3200 ft 138 kts 136°
2026-05-04 18:35 48.13312 12.11780 3200 ft 138 kts 136°
2026-05-04 18:35 48.12625 12.12778 3200 ft 138 kts 136°
2026-05-04 18:35 48.11948 12.13765 3201 ft 138 kts 136°
2026-05-04 18:35 48.11252 12.14780 3201 ft 138 kts 136°
2026-05-04 18:36 48.10566 12.15782 3200 ft 138 kts 136°
2026-05-04 18:36 48.09888 12.16770 3200 ft 138 kts 136°
2026-05-04 18:36 48.09202 12.17772 3200 ft 138 kts 136°
2026-05-04 18:36 48.08517 12.18775 3210 ft 138 kts 135°
2026-05-04 18:37 48.07835 12.19778 3198 ft 138 kts 136°
2026-05-04 18:37 48.07149 12.20777 3198 ft 138 kts 136°
2026-05-04 18:37 48.06462 12.21775 3199 ft 138 kts 136°
2026-05-04 18:37 48.05777 12.22777 3207 ft 138 kts 136°
2026-05-04 18:38 48.05095 12.23778 3200 ft 137 kts 136°
2026-05-04 18:38 48.04448 12.24721 3198 ft 138 kts 136°
2026-05-04 18:38 48.03761 12.25719 3209 ft 138 kts 136°
2026-05-04 18:38 48.03078 12.26715 3198 ft 138 kts 136°
2026-05-04 18:39 48.02388 12.27716 3205 ft 138 kts 136°
2026-05-04 18:39 48.01702 12.28717 3206 ft 138 kts 136°
2026-05-04 18:39 48.01018 12.29713 3198 ft 137 kts 136°
2026-05-04 18:39 48.00335 12.30706 3224 ft 134 kts 136°
2026-05-04 18:40 47.99674 12.31669 3207 ft 136 kts 137°
2026-05-04 18:40 47.98992 12.32653 3217 ft 137 kts 136°
2026-05-04 18:40 47.98328 12.33618 3281 ft 128 kts 139°
2026-05-04 18:40 47.97658 12.34568 3232 ft 137 kts 136°
2026-05-04 18:41 47.96970 12.35569 3226 ft 138 kts 135°
2026-05-04 18:41 47.96287 12.36571 3210 ft 138 kts 136°
2026-05-04 18:41 47.95602 12.37566 3201 ft 138 kts 136°
2026-05-04 18:41 47.94915 12.38561 3199 ft 138 kts 136°
2026-05-04 18:42 47.94229 12.39554 3205 ft 137 kts 136°
2026-05-04 18:42 47.93556 12.40538 3206 ft 133 kts 136°
2026-05-04 18:42 47.92870 12.41497 3175 ft 139 kts 137°
2026-05-04 18:42 47.92168 12.42532 3153 ft 139 kts 135°
2026-05-04 18:43 47.91514 12.43528 3259 ft 130 kts 138°
2026-05-04 18:43 47.91093 12.44254 3172 ft 140 kts 129°
2026-05-04 18:43 47.90522 12.45420 3175 ft 137 kts 124°
2026-05-04 18:43 47.90005 12.46568 3233 ft 134 kts 124°
2026-05-04 18:44 47.89470 12.47747 3137 ft 141 kts 123°
2026-05-04 18:44 47.89116 12.48554 3146 ft 138 kts 124°
2026-05-04 18:44 47.88427 12.50074 3325 ft 126 kts 126°
2026-05-04 18:44 47.87948 12.51128 3464 ft 124 kts 126°
2026-05-04 18:45 47.87480 12.52224 3559 ft 126 kts 122°
2026-05-04 18:45 47.86992 12.53370 3563 ft 135 kts 123°
2026-05-04 18:45 47.86460 12.54530 3608 ft 136 kts 125°
2026-05-04 18:45 47.85883 12.55665 3604 ft 138 kts 129°
2026-05-04 18:46 47.85259 12.56751 3636 ft 137 kts 134°
2026-05-04 18:46 47.84612 12.57792 3652 ft 138 kts 133°
2026-05-04 18:46 47.83980 12.58891 3589 ft 141 kts 133°
2026-05-04 18:46 47.83285 12.59833 3560 ft 138 kts 141°
2026-05-04 18:47 47.82507 12.60708 3401 ft 140 kts 146°
2026-05-04 18:47 47.81682 12.61490 3299 ft 142 kts 149°
2026-05-04 18:47 47.81028 12.62066 2592 ft 23 kts 85°
2026-05-04 18:47 47.80657 12.62022 2466 ft 72 kts 175°
2026-05-04 18:48 47.80138 12.62489 2618 ft 101 kts 144°
2026-05-04 18:48 47.79518 12.63107 2714 ft 118 kts 148°
2026-05-04 18:48 47.78749 12.63716 2604 ft 133 kts 152°
2026-05-04 18:48 47.77891 12.64270 2473 ft 131 kts 157°
2026-05-04 18:49 47.77057 12.64737 2439 ft 126 kts 160°
2026-05-04 18:49 47.76240 12.65137 2400 ft 124 kts 164°
2026-05-04 18:49 47.75430 12.65484 2404 ft 118 kts 165°
2026-05-04 18:49 47.74669 12.65904 2450 ft 114 kts 159°
2026-05-04 18:50 47.73929 12.66283 2505 ft 109 kts 169°
2026-05-04 18:50 47.73192 12.66359 2573 ft 103 kts 185°
2026-05-04 18:50 47.72544 12.66040 2606 ft 97 kts 201°
2026-05-04 18:50 47.71982 12.65556 2610 ft 97 kts 224°
2026-05-04 18:51 47.71529 12.64807 2549 ft 97 kts 234°
2026-05-04 18:51 47.71474 12.63978 2484 ft 71 kts 335°
2026-05-04 18:51 47.71609 12.64326 2385 ft 36 kts 56°
2026-05-04 18:51 47.71630 12.64478 2336 ft 5 kts 60°
2026-05-04 18:52 47.71633 12.64480 2318 ft 0 kts 59°
2026-05-04 18:54 47.71638 12.64482 2320 ft 0 kts 53°
2026-05-04 19:02 47.71632 12.64477 2423 ft 3 kts 46°
2026-05-04 19:03 47.71605 12.64717 2651 ft 54 kts 114°
2026-05-04 19:03 47.71289 12.65149 3050 ft 72 kts 149°
2026-05-04 19:03 47.70738 12.65101 3358 ft 88 kts 196°
2026-05-04 19:03 47.70153 12.64717 3513 ft 92 kts 204°
2026-05-04 19:04 47.69590 12.64312 3747 ft 79 kts 216°
2026-05-04 19:04 47.69716 12.63771 3891 ft 91 kts 352°
2026-05-04 19:04 47.70354 12.64050 3979 ft 94 kts 21°
2026-05-04 19:04 47.71053 12.64242 3758 ft 108 kts 353°
2026-05-04 19:05 47.71759 12.63777 3329 ft 112 kts 314°
2026-05-04 19:05 47.71837 12.63020 3237 ft 77 kts 203°
2026-05-04 19:05 47.71445 12.63333 2666 ft 57 kts 91°
2026-05-04 19:05 47.71505 12.63782 2521 ft 38 kts 64°
2026-05-04 19:06 47.71574 12.64052 2416 ft 15 kts 51°
2026-05-04 19:06 47.71608 12.64143 2338 ft 5 kts 60°
2026-05-04 19:06 47.71623 12.64147 2338 ft 6 kts 52°
2026-05-04 19:06 47.71609 12.64221 2618 ft 27 kts 62°
2026-05-04 19:07 47.71508 12.64653 2834 ft 63 kts 110°
2026-05-04 19:07 47.71216 12.65055 3208 ft 50 kts 175°
2026-05-04 19:07 47.70801 12.65041 3294 ft 72 kts 180°
2026-05-04 19:07 47.70328 12.64787 3311 ft 71 kts 204°
2026-05-04 19:08 47.69931 12.64455 3364 ft 63 kts 202°
2026-05-04 19:08 47.69525 12.64271 3501 ft 60 kts 192°
2026-05-04 19:08 47.69219 12.64097 3828 ft 54 kts 254°
2026-05-04 19:08 47.69458 12.63736 4099 ft 63 kts 343°
2026-05-04 19:09 47.69968 12.63528 4029 ft 85 kts 352°
2026-05-04 19:09 47.70599 12.63663 3810 ft 101 kts 13°
2026-05-04 19:09 47.71262 12.64099 3431 ft 104 kts 28°
2026-05-04 19:09 47.71857 12.64054 3131 ft 74 kts 302°
2026-05-04 19:10 47.71847 12.63475 3083 ft 56 kts 246°
2026-05-04 19:10 47.71496 12.63295 2708 ft 67 kts 118°
2026-05-04 19:10 47.71509 12.63842 2509 ft 48 kts 71°
2026-05-04 19:10 47.71582 12.64099 2343 ft 6 kts 69°
2026-05-04 19:11 47.71604 12.64116 2311 ft 0 kts 54°
2026-05-04 19:13 47.71604 12.64119 2311 ft 0 kts 45°
2026-05-04 19:13 47.71605 12.64121 2318 ft 1 kts 54°
2026-05-04 19:14 47.71604 12.64141 2330 ft 2 kts 61°
2026-05-04 19:14 47.71607 12.64156 2335 ft 2 kts 53°
2026-05-04 19:14 47.71616 12.64252 2479 ft 22 kts 53°
2026-05-04 19:14 47.71604 12.64596 2667 ft 51 kts 103°
2026-05-04 19:15 47.71329 12.65023 2948 ft 61 kts 155°
2026-05-04 19:15 47.70925 12.64954 3257 ft 62 kts 208°
2026-05-04 19:15 47.70531 12.64679 3535 ft 67 kts 201°
2026-05-04 19:15 47.70042 12.64435 3741 ft 82 kts 194°
2026-05-04 19:16 47.69432 12.64268 3854 ft 92 kts 197°
2026-05-04 19:16 47.69219 12.63628 4287 ft 86 kts 292°
2026-05-04 19:16 47.69739 12.63394 4538 ft 93 kts 13°
2026-05-04 19:16 47.70389 12.63959 3966 ft 115 kts 29°
2026-05-04 19:17 47.71087 12.64433 3628 ft 102 kts
2026-05-04 19:17 47.71699 12.64176 3440 ft 85 kts 322°
2026-05-04 19:17 47.71822 12.63415 3121 ft 83 kts 244°
2026-05-04 19:17 47.71430 12.63424 2711 ft 67 kts 96°
2026-05-04 19:18 47.71553 12.63965 2429 ft 38 kts 56°
2026-05-04 19:18 47.71595 12.64105 2334 ft 5 kts 59°
2026-05-04 19:18 47.71606 12.64116 2313 ft 0 kts 51°
2026-05-04 19:20 47.71607 12.64117 2314 ft 0 kts 50°
2026-05-04 19:20 47.71604 12.64122 2319 ft 1 kts 54°
2026-05-04 19:20 47.71604 12.64135 2334 ft 2 kts 69°
2026-05-04 19:20 47.71606 12.64144 2337 ft 2 kts 70°
2026-05-04 19:21 47.71608 12.64147 2349 ft 1 kts 72°
2026-05-04 19:21 47.71598 12.64199 2494 ft 23 kts 73°
2026-05-04 19:21 47.71478 12.64473 2843 ft 32 kts 126°
2026-05-04 19:21 47.71275 12.64705 3171 ft 46 kts 157°
2026-05-04 19:22 47.70938 12.64674 3438 ft 56 kts 197°
2026-05-04 19:22 47.70532 12.64469 3680 ft 70 kts 198°
2026-05-04 19:22 47.69950 12.64380 3651 ft 91 kts 190°
2026-05-04 19:22 47.69336 12.64291 3530 ft 81 kts 170°
2026-05-04 19:23 47.69143 12.64664 3864 ft 60 kts 52°
2026-05-04 19:23 47.69514 12.64986 4147 ft 58 kts
2026-05-04 19:23 47.69972 12.64985 4336 ft 80 kts 344°
2026-05-04 19:23 47.70617 12.64718 4140 ft 104 kts 336°
2026-05-04 19:24 47.71076 12.64453 3862 ft 114 kts 333°
2026-05-04 19:24 47.71847 12.63976 3406 ft 111 kts 319°
2026-05-04 19:24 47.71787 12.63164 2999 ft 104 kts 193°
2026-05-04 19:24 47.71491 12.63756 2505 ft 73 kts 62°
2026-05-04 19:25 47.71587 12.64116 2358 ft 9 kts 57°
2026-05-04 19:25 47.71604 12.64137 2349 ft 3 kts 59°
2026-05-04 19:25 47.71611 12.64154 2343 ft 7 kts 59°
2026-05-04 19:25 47.71628 12.64314 2527 ft 35 kts 60°
2026-05-04 19:26 47.71541 12.64817 2728 ft 66 kts 115°
2026-05-04 19:26 47.71122 12.65043 2983 ft 72 kts 187°
2026-05-04 19:26 47.70699 12.64734 3103 ft 62 kts 206°
2026-05-04 19:26 47.70307 12.64463 3178 ft 66 kts 201°
2026-05-04 19:27 47.69850 12.64258 3222 ft 68 kts 193°
2026-05-04 19:27 47.69432 12.64223 3310 ft 45 kts 172°
2026-05-04 19:27 47.69225 12.64427 3524 ft 40 kts 133°
2026-05-04 19:27 47.69051 12.64246 3901 ft 45 kts 234°
2026-05-04 19:28 47.69080 12.63680 4258 ft 66 kts 300°
2026-05-04 19:28 47.69555 12.63531 4279 ft 87 kts
2026-05-04 19:28 47.70213 12.63840 3941 ft 104 kts 18°
2026-05-04 19:28 47.70891 12.64322 3549 ft 111 kts 27°
2026-05-04 19:29 47.71622 12.64464 3150 ft 107 kts 332°
2026-05-04 19:29 47.71836 12.63621 2854 ft 93 kts 238°
2026-05-04 19:29 47.71514 12.63831 2443 ft 55 kts 72°
2026-05-04 19:29 47.71584 12.64098 2360 ft 10 kts 50°
2026-05-04 19:30 47.71605 12.64143 2337 ft 0 kts 52°
2026-05-04 19:30 47.71610 12.64149 2334 ft 3 kts 40°
2026-05-04 19:30 47.71610 12.64200 2402 ft 24 kts 41°
2026-05-04 19:30 47.71558 12.64651 2577 ft 60 kts 114°
2026-05-04 19:31 47.71219 12.65042 2866 ft 66 kts 170°
2026-05-04 19:31 47.70767 12.64863 3126 ft 60 kts 203°
2026-05-04 19:31 47.70365 12.64593 3359 ft 71 kts 202°
2026-05-04 19:31 47.69873 12.64376 3442 ft 76 kts 193°
2026-05-04 19:32 47.69354 12.64219 3584 ft 70 kts 192°
2026-05-04 19:32 47.69282 12.63843 3923 ft 52 kts 328°
2026-05-04 19:32 47.69713 12.63798 4110 ft 72 kts
2026-05-04 19:32 47.70302 12.64033 3991 ft 105 kts 14°
2026-05-04 19:33 47.71054 12.64365 3584 ft 116 kts
2026-05-04 19:33 47.71784 12.64044 2946 ft 99 kts 296°
2026-05-04 19:33 47.71518 12.63612 2524 ft 67 kts 133°
2026-05-04 19:33 47.71565 12.64050 2382 ft 23 kts 52°
2026-05-04 19:34 47.71603 12.64134 2339 ft 5 kts 54°
2026-05-04 19:34 47.71607 12.64140 2337 ft 1 kts 56°
2026-05-04 19:34 47.71601 12.64249 2434 ft 27 kts 55°
2026-05-04 19:34 47.71534 12.64710 2618 ft 65 kts 109°
2026-05-04 19:35 47.71129 12.65111 2855 ft 75 kts 172°
2026-05-04 19:35 47.70679 12.64782 3101 ft 71 kts 220°
2026-05-04 19:35 47.70224 12.64362 3190 ft 79 kts 200°
2026-05-04 19:35 47.69726 12.64217 3243 ft 66 kts 187°
2026-05-04 19:36 47.69342 12.64238 3557 ft 37 kts 171°
2026-05-04 19:36 47.69239 12.63955 4017 ft 42 kts 299°
2026-05-04 19:36 47.69641 12.63746 4326 ft 77 kts 350°
2026-05-04 19:36 47.70273 12.63868 3959 ft 110 kts
2026-05-04 19:37 47.71012 12.64329 3555 ft 113 kts 26°
2026-05-04 19:37 47.71766 12.64259 3004 ft 117 kts 312°
2026-05-04 19:37 47.71547 12.63552 2608 ft 98 kts 155°
2026-05-04 19:37 47.71585 12.64109 2434 ft 46 kts 35°
2026-05-04 19:38 47.71580 12.63980 2432 ft 32 kts 95°
2026-05-04 19:38 47.71615 12.64123 2363 ft 9 kts 70°
2026-05-04 19:38 47.71625 12.64145 2339 ft 5 kts 145°
2026-05-04 19:38 47.71602 12.64136 2354 ft 4 kts 97°
2026-05-04 19:39 47.71604 12.64144 2369 ft 6 kts 107°
2026-05-04 19:39 47.71515 12.64358 2609 ft 29 kts 110°
2026-05-04 19:39 47.71327 12.64692 3120 ft 60 kts 147°
2026-05-04 19:39 47.70822 12.64751 3285 ft 82 kts 177°
2026-05-04 19:40 47.70304 12.64486 3290 ft 76 kts 204°
2026-05-04 19:40 47.69839 12.64209 3223 ft 64 kts 173°
2026-05-04 19:40 47.69498 12.64186 3298 ft 42 kts 176°
2026-05-04 19:40 47.69327 12.64102 3547 ft 26 kts 220°
2026-05-04 19:41 47.69403 12.63868 3815 ft 32 kts 308°
2026-05-04 19:41 47.69766 12.63969 3975 ft 70 kts 13°
2026-05-04 19:41 47.70342 12.64199 3818 ft 100 kts
2026-05-04 19:41 47.71041 12.64483 3627 ft 103 kts
2026-05-04 19:42 47.71769 12.64198 2944 ft 118 kts 301°
2026-05-04 19:42 47.71616 12.63579 2513 ft 62 kts 144°
2026-05-04 19:42 47.71539 12.63951 2429 ft 28 kts 80°
2026-05-04 19:42 47.71562 12.64114 2346 ft 9 kts 62°
2026-05-04 19:43 47.71572 12.64164 2334 ft 1 kts 63°
2026-05-04 19:43 47.71581 12.64252 2499 ft 30 kts 73°
2026-05-04 19:43 47.71417 12.64611 2899 ft 59 kts 123°
2026-05-04 19:43 47.71061 12.64878 3041 ft 58 kts 182°
2026-05-04 19:44 47.70700 12.64638 3191 ft 52 kts 198°
2026-05-04 19:44 47.70323 12.64471 3267 ft 61 kts 192°
2026-05-04 19:44 47.69890 12.64308 3232 ft 59 kts 187°
2026-05-04 19:44 47.69549 12.64253 3345 ft 37 kts 190°
2026-05-04 19:45 47.69351 12.64235 3395 ft 22 kts 191°
2026-05-04 19:45 47.69206 12.64246 3632 ft 24 kts 238°
2026-05-04 19:45 47.69238 12.63972 4017 ft 49 kts 303°
2026-05-04 19:45 47.69657 12.63620 4289 ft 89 kts 340°
2026-05-04 19:46 47.70385 12.63729 4112 ft 121 kts 12°
2026-05-04 19:46 47.71314 12.64118 3246 ft 148 kts
2026-05-04 19:46 47.71725 12.63476 2722 ft 107 kts 201°
2026-05-04 19:46 47.71525 12.63977 2392 ft 46 kts 65°
2026-05-04 19:47 47.71563 12.64136 2364 ft 6 kts 60°
2026-05-04 19:47 47.71575 12.64185 2369 ft 9 kts 57°
2026-05-04 19:47 47.71587 12.64507 2593 ft 51 kts 95°
2026-05-04 19:47 47.71341 12.65074 2777 ft 82 kts 133°
2026-05-04 19:48 47.70864 12.65090 3089 ft 73 kts 211°
2026-05-04 19:48 47.70408 12.64601 3217 ft 85 kts 208°
2026-05-04 19:48 47.69870 12.64313 3276 ft 78 kts 195°
2026-05-04 19:48 47.69407 12.64185 3288 ft 57 kts 181°
2026-05-04 19:49 47.69156 12.64162 3466 ft 28 kts 262°
2026-05-04 19:49 47.69374 12.64094 3553 ft 52 kts 358°
2026-05-04 19:49 47.69912 12.63918 3398 ft 96 kts 340°
2026-05-04 19:49 47.70452 12.64397 3322 ft 106 kts 49°
2026-05-04 19:50 47.71144 12.64855 3165 ft 111 kts
2026-05-04 19:50 47.71838 12.64496 2755 ft 109 kts 291°
2026-05-04 19:50 47.71701 12.63540 2621 ft 81 kts 215°
2026-05-04 19:50 47.71551 12.63857 2499 ft 48 kts 57°
2026-05-04 19:51 47.71595 12.64139 2382 ft 12 kts 19°
2026-05-04 19:51 47.71621 12.64174 2325 ft 5 kts 244°
2026-05-04 19:51 47.71579 12.64150 2331 ft 9 kts 143°
2026-05-04 19:51 47.71586 12.64246 2365 ft 30 kts 78°
2026-05-04 19:52 47.71558 12.64677 2621 ft 56 kts 101°
2026-05-04 19:52 47.71267 12.65118 2917 ft 70 kts 160°
2026-05-04 19:52 47.70797 12.65084 3228 ft 73 kts 195°
2026-05-04 19:52 47.70308 12.64596 3261 ft 97 kts 216°
2026-05-04 19:53 47.69684 12.64209 3257 ft 88 kts 188°
2026-05-04 19:53 47.69328 12.64213 3545 ft 16 kts 200°
2026-05-04 19:53 47.69287 12.64179 3567 ft 11 kts 214°
2026-05-04 19:53 47.69281 12.63877 3766 ft 44 kts 301°
2026-05-04 19:54 47.69715 12.63781 3859 ft 88 kts 320°
2026-05-04 19:54 47.70137 12.62969 3885 ft 109 kts 293°
2026-05-04 19:54 47.70578 12.62035 3998 ft 108 kts 309°
2026-05-04 19:54 47.71241 12.62106 2912 ft 126 kts 64°
2026-05-04 19:55 47.71396 12.63310 2682 ft 108 kts 75°
2026-05-04 19:55 47.71536 12.64207 2500 ft 59 kts 59°
2026-05-04 19:55 47.71602 12.64418 2411 ft 11 kts 66°
2026-05-04 19:55 47.71619 12.64426 2334 ft 2 kts 61°
2026-05-04 19:56 47.71618 12.64424 2316 ft 0 kts 62°